Time,TemperatureF,DewpointF,PressureIn,WindDirection,WindDirectionDegrees,WindSpeedMPH,WindSpeedGustMPH,Humidity,HourlyPrecipIn,Conditions,Clouds,dailyrainin,SolarRadiationWatts/m^2,SoftwareType,DateUTC
2013-01-12 00:01:00,37.6,36.3,29.97,WNW,294,1.2,1.2,95,0.00,RA,OVC,0.00,0.0,WeatherDisplay:10.37,2013-01-12 00:01:00,
2013-01-12 00:06:00,37.5,36.2,29.97,WNW,293,0.0,0.0,95,0.00,RA,OVC,0.00,0.0,WeatherDisplay:10.37,2013-01-12 00:06:00,
2013-01-12 00:11:00,37.5,36.2,29.97,SE,138,1.2,0.0,95,0.00,SCT,OVC,0.00,0.0,WeatherDisplay:10.37,2013-01-12 00:11:00,
2013-01-12 00:16:00,37.5,36.2,29.97,ESE,115,1.2,1.2,95,0.00,FEW,OVC,0.00,0.0,WeatherDisplay:10.37,2013-01-12 00:16:00,
2013-01-12 00:21:00,37.5,36.2,29.97,ESE,117,1.2,1.2,95,0.00,FEW,OVC,0.00,0.0,WeatherDisplay:10.37,2013-01-12 00:21:00,
2013-01-12 00:26:00,37.5,35.9,29.97,SE,140,2.3,2.3,94,0.00,FEW,OVC,0.00,0.0,WeatherDisplay:10.37,2013-01-12 00:26:00,
2013-01-12 00:31:00,37.5,35.9,29.97,SE,129,1.2,0.0,94,0.00,FEW,OVC,0.00,0.0,WeatherDisplay:10.37,2013-01-12 00:31:00,
2013-01-12 00:36:00,37.5,35.9,29.97,SE,124,1.2,1.2,94,0.00,FEW,OVC,0.00,0.0,WeatherDisplay:10.37,2013-01-12 00:36:00,
2013-01-12 00:41:00,37.5,35.9,29.97,East,92,1.2,1.2,94,0.00,FEW,OVC,0.00,0.0,WeatherDisplay:10.37,2013-01-12 00:41:00,
2013-01-12 00:46:00,37.5,35.9,29.97,ESE,122,1.2,1.2,94,0.00,FEW,OVC,0.00,0.0,WeatherDisplay:10.37,2013-01-12 00:46:00,
2013-01-12 00:51:00,37.5,35.9,29.97,ESE,120,2.3,2.3,94,0.00,FEW,OVC,0.00,0.0,WeatherDisplay:10.37,2013-01-12 00:51:00,
2013-01-12 00:56:00,37.5,35.9,29.97,ESE,122,0.0,0.0,94,0.00,FEW,OVC,0.00,0.0,WeatherDisplay:10.37,2013-01-12 00:56:00,
2013-01-12 01:01:00,37.5,35.9,29.97,SE,127,1.2,1.2,94,0.00,FEW,OVC,0.00,0.0,WeatherDisplay:10.37,2013-01-12 01:01:00,
2013-01-12 01:06:00,37.5,35.9,29.97,SE,127,1.2,1.2,94,0.00,FEW,OVC,0.00,0.0,WeatherDisplay:10.37,2013-01-12 01:06:00,
2013-01-12 01:12:00,37.5,35.9,29.97,ESE,122,2.3,2.3,94,0.00,FEW,OVC,0.00,0.0,WeatherDisplay:10.37,2013-01-12 01:12:00,
2013-01-12 01:17:00,37.5,35.9,29.97,WSW,241,0.0,0.5,94,0.00,FEW,OVC,0.00,0.0,WeatherDisplay:10.37,2013-01-12 01:17:00,
2013-01-12 01:22:00,37.5,35.7,29.97,WNW,292,1.2,1.2,93,0.00,FEW,OVC,0.00,0.0,WeatherDisplay:10.37,2013-01-12 01:22:00,
2013-01-12 01:27:00,37.4,35.6,29.97,East,94,1.2,1.2,93,0.00,FEW,OVC,0.00,0.0,WeatherDisplay:10.37,2013-01-12 01:27:00,
2013-01-12 01:32:00,37.3,35.5,29.97,SE,126,1.2,1.2,93,0.00,SCT,OVC,0.00,0.0,WeatherDisplay:10.37,2013-01-12 01:32:00,
2013-01-12 01:37:00,37.3,35.5,29.97,NE,53,1.2,1.2,93,0.00,SCT,OVC,0.00,0.0,WeatherDisplay:10.37,2013-01-12 01:37:00,
2013-01-12 01:42:00,37.2,35.4,29.97,SE,124,1.2,1.2,93,0.00,SCT,OVC,0.00,0.0,WeatherDisplay:10.37,2013-01-12 01:42:00,
2013-01-12 01:47:00,37.2,35.4,29.97,South,191,0.0,0.0,93,0.00,SCT,OVC,0.00,0.0,WeatherDisplay:10.37,2013-01-12 01:47:00,
2013-01-12 01:52:00,37.1,35.3,29.97,WNW,292,0.0,0.0,93,0.00,SCT,OVC,0.00,0.0,WeatherDisplay:10.37,2013-01-12 01:52:00,
2013-01-12 01:57:00,37.1,35.3,29.97,West,273,1.2,1.2,93,0.00,SCT,OVC,0.00,0.0,WeatherDisplay:10.37,2013-01-12 01:57:00,
2013-01-12 02:02:00,37.1,35.0,29.97,ESE,117,1.2,1.2,92,0.00,SCT,OVC,0.00,0.0,WeatherDisplay:10.37,2013-01-12 02:02:00,
2013-01-12 02:07:00,37.1,35.0,29.97,South,180,1.2,0.0,92,0.00,SCT,OVC,0.00,0.0,WeatherDisplay:10.37,2013-01-12 02:07:00,
2013-01-12 02:12:00,37.1,35.0,29.97,NE,47,0.0,0.0,92,0.00,SCT,OVC,0.00,0.0,WeatherDisplay:10.37,2013-01-12 02:12:00,
2013-01-12 02:17:00,37.1,35.0,29.97,SE,136,2.3,2.3,92,0.00,SCT,OVC,0.00,0.0,WeatherDisplay:10.37,2013-01-12 02:17:00,
2013-01-12 02:22:00,37.1,35.0,29.97,NE,46,1.2,0.0,92,0.00,SCT,OVC,0.00,0.0,WeatherDisplay:10.37,2013-01-12 02:22:00,
2013-01-12 02:27:00,37.2,35.1,29.97,SE,139,1.2,1.2,92,0.00,SCT,OVC,0.00,0.0,WeatherDisplay:10.37,2013-01-12 02:27:00,
2013-01-12 02:32:00,37.2,35.1,29.97,SE,131,1.2,1.2,92,0.00,SCT,OVC,0.00,0.0,WeatherDisplay:10.37,2013-01-12 02:32:00,
2013-01-12 02:37:00,37.2,35.1,29.97,SE,139,1.2,1.2,92,0.00,SCT,OVC,0.00,0.0,WeatherDisplay:10.37,2013-01-12 02:37:00,
2013-01-12 02:42:00,37.1,35.0,29.97,WNW,291,1.2,0.0,92,0.00,SCT,OVC,0.00,0.0,WeatherDisplay:10.37,2013-01-12 02:42:00,
2013-01-12 02:47:00,37.0,34.9,29.97,SSW,212,1.2,1.2,92,0.00,FEW,OVC,0.00,0.0,WeatherDisplay:10.37,2013-01-12 02:47:00,
2013-01-12 02:52:00,36.8,34.7,29.97,WSW,250,1.2,1.2,92,0.00,FEW,OVC,0.00,0.0,WeatherDisplay:10.37,2013-01-12 02:52:00,
2013-01-12 02:57:00,36.7,34.6,29.96,West,266,1.2,1.2,92,0.00,FEW,OVC,0.00,0.0,WeatherDisplay:10.37,2013-01-12 02:57:00,
2013-01-12 03:02:00,36.5,34.1,29.96,SE,138,2.3,2.3,91,0.00,CLR,OVC,0.00,0.0,WeatherDisplay:10.37,2013-01-12 03:02:00,
2013-01-12 03:07:00,36.3,34.2,29.96,SSW,207,1.2,1.2,92,0.00,CLR,OVC,0.00,0.0,WeatherDisplay:10.37,2013-01-12 03:07:00,
2013-01-12 03:12:00,36.1,34.0,29.96,SSE,150,1.0,1.0,92,0.00,CLR,OVC,0.00,0.0,WeatherDisplay:10.37,2013-01-12 03:12:00,
2013-01-12 03:17:00,36.0,33.9,29.96,SSE,148,0.0,0.0,92,0.00,CLR,OVC,0.00,0.0,WeatherDisplay:10.37,2013-01-12 03:17:00,
2013-01-12 03:22:00,35.8,33.7,29.96,SW,231,1.2,0.0,92,0.00,CLR,OVC,0.00,0.0,WeatherDisplay:10.37,2013-01-12 03:22:00,
2013-01-12 03:27:00,35.6,33.5,29.96,West,263,0.0,0.0,92,0.00,CLR,OVC,0.00,0.0,WeatherDisplay:10.37,2013-01-12 03:27:00,
2013-01-12 03:32:00,35.4,33.3,29.96,West,262,1.2,0.0,92,0.00,CLR,OVC,0.00,0.0,WeatherDisplay:10.37,2013-01-12 03:32:00,
2013-01-12 03:37:00,35.2,33.1,29.96,SE,131,0.0,0.0,92,0.00,CLR,OVC,0.00,0.0,WeatherDisplay:10.37,2013-01-12 03:37:00,
2013-01-12 03:42:00,35.0,33.2,29.96,SE,131,0.0,0.0,93,0.00,CLR,OVC,0.00,0.0,WeatherDisplay:10.37,2013-01-12 03:42:00,
2013-01-12 03:47:00,35.0,33.2,29.96,SE,134,0.0,0.0,93,0.00,CLR,OVC,0.00,0.0,WeatherDisplay:10.37,2013-01-12 03:47:00,
2013-01-12 03:52:00,34.9,33.1,29.96,SE,136,0.0,0.0,93,0.00,CLR,OVC,0.00,0.0,WeatherDisplay:10.37,2013-01-12 03:52:00,
2013-01-12 03:57:00,34.9,33.1,29.96,SSW,197,0.0,0.0,93,0.00,CLR,OVC,0.00,0.0,WeatherDisplay:10.37,2013-01-12 03:57:00,
2013-01-12 04:02:00,34.9,33.1,29.96,WSW,247,0.0,0.0,93,0.00,CLR,OVC,0.00,0.0,WeatherDisplay:10.37,2013-01-12 04:02:00,
2013-01-12 04:07:00,34.9,33.1,29.96,SW,214,1.2,0.0,93,0.00,CLR,OVC,0.00,0.0,WeatherDisplay:10.37,2013-01-12 04:07:00,
2013-01-12 04:12:00,34.9,33.1,29.96,WSW,251,1.2,1.2,93,0.00,CLR,OVC,0.00,0.0,WeatherDisplay:10.37,2013-01-12 04:12:00,
2013-01-12 04:17:00,34.9,33.1,29.96,SE,142,0.0,0.0,93,0.00,CLR,OVC,0.00,0.0,WeatherDisplay:10.37,2013-01-12 04:17:00,
2013-01-12 04:22:00,34.9,33.1,29.96,SE,145,1.2,0.0,93,0.00,CLR,OVC,0.00,0.0,WeatherDisplay:10.37,2013-01-12 04:22:00,
2013-01-12 04:27:00,34.8,33.0,29.96,SE,145,0.0,0.0,93,0.00,CLR,OVC,0.00,0.0,WeatherDisplay:10.37,2013-01-12 04:27:00,
2013-01-12 04:32:00,34.8,33.0,29.96,South,188,1.2,1.2,93,0.00,SCT,OVC,0.00,0.0,WeatherDisplay:10.37,2013-01-12 04:32:00,
2013-01-12 04:37:00,34.9,33.1,29.96,NE,41,1.2,1.2,93,0.00,SCT,OVC,0.00,0.0,WeatherDisplay:10.37,2013-01-12 04:37:00,
2013-01-12 04:42:00,34.9,32.8,29.96,SE,131,1.2,0.0,92,0.00,SCT,OVC,0.00,0.0,WeatherDisplay:10.37,2013-01-12 04:42:00,
2013-01-12 04:47:00,34.9,32.8,29.96,WNW,302,0.0,0.0,92,0.00,SCT,OVC,0.00,0.0,WeatherDisplay:10.37,2013-01-12 04:47:00,
2013-01-12 04:52:00,34.9,33.1,29.96,NW,322,0.0,0.0,93,0.00,SCT,OVC,0.00,0.0,WeatherDisplay:10.37,2013-01-12 04:52:00,
2013-01-12 04:57:00,35.0,33.2,29.96,West,273,0.0,0.0,93,0.00,SCT,OVC,0.00,0.0,WeatherDisplay:10.37,2013-01-12 04:57:00,
2013-01-12 05:01:00,35.1,33.3,29.97,ESE,121,1.0,1.0,93,0.00,SCT,OVC,0.00,0.0,WeatherDisplay:10.37,2013-01-12 05:01:00,
2013-01-12 05:02:00,35.1,33.3,29.97,ESE,121,1.2,1.2,93,0.00,SCT,OVC,0.00,0.0,WeatherDisplay:10.37,2013-01-12 05:02:00,
2013-01-12 05:03:00,35.2,33.4,29.97,ESE,121,0.0,0.0,93,0.00,SCT,OVC,0.00,0.0,WeatherDisplay:10.37,2013-01-12 05:03:00,
2013-01-12 05:08:00,35.2,33.1,29.97,NW,314,0.0,0.2,92,0.00,SCT,OVC,0.00,0.0,WeatherDisplay:10.37,2013-01-12 05:08:00,
2013-01-12 05:13:00,35.3,33.5,29.96,South,188,0.0,0.0,93,0.00,SCT,OVC,0.00,0.0,WeatherDisplay:10.37,2013-01-12 05:13:00,
2013-01-12 05:18:00,35.5,33.7,29.96,SE,129,0.0,0.0,93,0.00,SCT,OVC,0.00,0.0,WeatherDisplay:10.37,2013-01-12 05:18:00,
2013-01-12 05:23:00,35.7,33.9,29.96,SSE,152,0.0,0.1,93,0.00,SCT,OVC,0.00,0.0,WeatherDisplay:10.37,2013-01-12 05:23:00,
2013-01-12 05:28:00,35.9,34.1,29.96,West,274,1.2,1.2,93,0.00,SCT,OVC,0.00,0.0,WeatherDisplay:10.37,2013-01-12 05:28:00,
2013-01-12 05:33:00,36.1,34.0,29.96,ESE,121,1.2,1.2,92,0.00,SCT,OVC,0.00,0.0,WeatherDisplay:10.37,2013-01-12 05:33:00,
2013-01-12 05:38:00,36.3,34.2,29.97,WSW,253,1.2,1.2,92,0.00,SCT,OVC,0.00,0.0,WeatherDisplay:10.37,2013-01-12 05:38:00,
2013-01-12 05:43:00,36.4,34.3,29.97,WNW,291,1.2,1.2,92,0.00,SCT,OVC,0.00,0.0,WeatherDisplay:10.37,2013-01-12 05:43:00,
2013-01-12 05:48:00,36.5,34.4,29.97,NNW,328,2.3,2.3,92,0.00,SCT,OVC,0.00,0.0,WeatherDisplay:10.37,2013-01-12 05:48:00,
2013-01-12 05:53:00,36.7,34.6,29.96,West,259,1.2,0.0,92,0.00,SCT,OVC,0.00,0.0,WeatherDisplay:10.37,2013-01-12 05:53:00,
2013-01-12 05:58:00,36.7,34.6,29.97,WSW,245,1.2,1.2,92,0.00,SCT,OVC,0.00,0.0,WeatherDisplay:10.37,2013-01-12 05:58:00,
2013-01-12 06:04:00,36.8,34.7,29.97,West,269,1.2,1.2,92,0.00,BKN,OVC,0.00,0.0,WeatherDisplay:10.37,2013-01-12 06:04:00,
2013-01-12 06:09:00,36.9,34.5,29.97,SW,218,0.0,0.0,91,0.00,BKN,OVC,0.00,0.0,WeatherDisplay:10.37,2013-01-12 06:09:00,
2013-01-12 06:14:00,37.0,34.6,29.97,SE,140,1.2,1.2,91,0.00,BKN,OVC,0.00,0.0,WeatherDisplay:10.37,2013-01-12 06:14:00,
2013-01-12 06:19:00,37.0,34.6,29.97,NNW,340,1.2,0.0,91,0.00,BKN,OVC,0.00,0.0,WeatherDisplay:10.37,2013-01-12 06:19:00,
2013-01-12 06:24:00,37.0,34.6,29.97,ESE,121,0.0,0.4,91,0.00,BKN,OVC,0.00,0.0,WeatherDisplay:10.37,2013-01-12 06:24:00,
2013-01-12 06:29:00,37.1,34.7,29.97,SE,139,0.0,0.0,91,0.00,BKN,OVC,0.00,0.0,WeatherDisplay:10.37,2013-01-12 06:29:00,
2013-01-12 06:34:00,37.1,34.7,29.97,ESE,107,1.2,0.0,91,0.00,BKN,OVC,0.00,0.0,WeatherDisplay:10.37,2013-01-12 06:34:00,
2013-01-12 06:39:00,37.1,34.7,29.97,SE,138,1.2,1.2,91,0.00,BKN,OVC,0.00,0.0,WeatherDisplay:10.37,2013-01-12 06:39:00,
2013-01-12 06:44:00,37.1,34.7,29.97,WNW,303,1.2,0.0,91,0.00,BKN,OVC,0.00,0.0,WeatherDisplay:10.37,2013-01-12 06:44:00,
2013-01-12 06:49:00,37.1,34.7,29.97,WNW,284,0.0,0.0,91,0.00,BKN,OVC,0.00,0.0,WeatherDisplay:10.37,2013-01-12 06:49:00,
2013-01-12 06:54:00,37.1,34.7,29.98,WNW,302,0.0,0.0,91,0.00,BKN,OVC,0.00,0.0,WeatherDisplay:10.37,2013-01-12 06:54:00,
2013-01-12 06:59:00,37.1,34.7,29.98,ESE,114,0.0,0.0,91,0.00,BKN,OVC,0.00,0.0,WeatherDisplay:10.37,2013-01-12 06:59:00,
2013-01-12 07:04:00,37.1,34.7,29.98,ESE,120,1.2,1.2,91,0.00,BKN,OVC,0.00,0.0,WeatherDisplay:10.37,2013-01-12 07:04:00,
2013-01-12 07:09:00,37.1,34.7,29.98,ESE,119,1.2,0.0,91,0.00,BKN,OVC,0.00,0.0,WeatherDisplay:10.37,2013-01-12 07:09:00,
2013-01-12 07:14:00,37.1,34.7,29.98,NNE,23,1.2,1.2,91,0.00,BKN,OVC,0.00,0.0,WeatherDisplay:10.37,2013-01-12 07:14:00,
2013-01-12 07:19:00,37.1,34.7,29.98,West,277,0.0,0.0,91,0.00,BKN,OVC,0.00,0.0,WeatherDisplay:10.37,2013-01-12 07:19:00,
2013-01-12 07:24:00,37.1,34.7,29.98,SE,129,0.0,0.0,91,0.00,BKN,OVC,0.00,0.0,WeatherDisplay:10.37,2013-01-12 07:24:00,
2013-01-12 07:29:00,37.2,34.8,29.98,SSE,150,0.0,0.0,91,0.00,BKN,OVC,0.00,0.0,WeatherDisplay:10.37,2013-01-12 07:29:00,
2013-01-12 07:34:00,37.2,34.8,29.98,West,269,1.2,1.2,91,0.00,BKN,OVC,0.00,0.0,WeatherDisplay:10.37,2013-01-12 07:34:00,
2013-01-12 07:39:00,37.2,34.8,29.98,SSW,198,0.0,0.0,91,0.00,BKN,OVC,0.00,0.0,WeatherDisplay:10.37,2013-01-12 07:39:00,
2013-01-12 07:44:00,37.2,34.8,29.99,SSE,151,0.0,0.0,91,0.00,BKN,OVC,0.00,0.0,WeatherDisplay:10.37,2013-01-12 07:44:00,
2013-01-12 07:49:00,37.3,34.9,29.99,South,184,0.0,0.0,91,0.00,BKN,OVC,0.00,0.0,WeatherDisplay:10.37,2013-01-12 07:49:00,
2013-01-12 07:54:00,37.3,34.9,29.99,SSE,150,0.0,0.0,91,0.00,BKN,OVC,0.00,0.0,WeatherDisplay:10.37,2013-01-12 07:54:00,
2013-01-12 07:59:00,37.3,34.6,29.99,ESE,108,2.3,2.3,90,0.00,BKN,OVC,0.00,0.0,WeatherDisplay:10.37,2013-01-12 07:59:00,
2013-01-12 08:04:00,37.4,34.7,29.99,SE,124,2.3,2.3,90,0.00,BKN,OVC,0.00,0.0,WeatherDisplay:10.37,2013-01-12 08:04:00,
2013-01-12 08:09:00,37.4,34.7,29.99,ESE,122,1.0,0.0,90,0.00,BKN,OVC,0.00,0.0,WeatherDisplay:10.37,2013-01-12 08:09:00,
2013-01-12 08:14:00,37.4,34.7,30.00,WNW,283,0.0,0.0,90,0.00,BKN,OVC,0.00,0.0,WeatherDisplay:10.37,2013-01-12 08:14:00,
2013-01-12 08:19:00,37.5,34.8,30.00,SE,127,1.2,1.2,90,0.00,BKN,OVC,0.00,0.0,WeatherDisplay:10.37,2013-01-12 08:19:00,
2013-01-12 08:24:00,37.5,34.8,30.00,East,98,1.2,1.2,90,0.00,BKN,OVC,0.00,0.0,WeatherDisplay:10.37,2013-01-12 08:24:00,
2013-01-12 08:29:00,37.5,34.8,30.00,NNE,13,1.2,1.2,90,0.00,BKN,OVC,0.00,0.0,WeatherDisplay:10.37,2013-01-12 08:29:00,
2013-01-12 08:34:00,37.5,34.8,30.00,ESE,113,0.0,0.0,90,0.00,BKN,OVC,0.00,0.0,WeatherDisplay:10.37,2013-01-12 08:34:00,
2013-01-12 08:39:00,37.5,35.1,30.00,SSE,157,1.2,1.2,91,0.00,BKN,OVC,0.00,0.0,WeatherDisplay:10.37,2013-01-12 08:39:00,
2013-01-12 08:44:00,37.5,34.8,30.00,West,271,0.0,0.1,90,0.00,BKN,OVC,0.00,0.0,WeatherDisplay:10.37,2013-01-12 08:44:00,
2013-01-12 08:49:00,37.5,34.8,30.00,ESE,122,0.0,0.0,90,0.00,BKN,OVC,0.00,0.0,WeatherDisplay:10.37,2013-01-12 08:49:00,
2013-01-12 08:54:00,37.5,34.8,30.00,SW,229,0.0,0.1,90,0.00,BKN,OVC,0.00,0.0,WeatherDisplay:10.37,2013-01-12 08:54:00,
2013-01-12 08:59:00,37.5,34.8,30.01,WSW,245,0.0,0.0,90,0.00,BKN,OVC,0.00,0.0,WeatherDisplay:10.37,2013-01-12 08:59:00,
2013-01-12 09:04:00,37.6,34.9,30.01,SE,132,0.0,0.0,90,0.00,SCT,OVC,0.00,0.0,WeatherDisplay:10.37,2013-01-12 09:04:00,
2013-01-12 09:09:00,37.6,34.9,30.01,SSW,193,0.0,0.1,90,0.00,SCT,OVC,0.00,0.0,WeatherDisplay:10.37,2013-01-12 09:09:00,
2013-01-12 09:14:00,37.6,34.9,30.01,SE,136,1.2,1.2,90,0.00,SCT,OVC,0.00,0.0,WeatherDisplay:10.37,2013-01-12 09:14:00,
2013-01-12 09:19:00,37.7,35.0,30.01,SE,131,1.2,0.0,90,0.00,SCT,OVC,0.00,0.0,WeatherDisplay:10.37,2013-01-12 09:19:00,
2013-01-12 09:24:00,37.7,35.0,30.01,SE,143,0.0,0.0,90,0.00,SCT,OVC,0.00,0.0,WeatherDisplay:10.37,2013-01-12 09:24:00,
2013-01-12 09:29:00,37.7,35.0,30.02,SE,124,1.2,1.2,90,0.00,SCT,OVC,0.00,0.0,WeatherDisplay:10.37,2013-01-12 09:29:00,
2013-01-12 09:34:00,37.8,35.1,30.02,SE,129,1.2,1.2,90,0.00,FEW,OVC,0.00,0.0,WeatherDisplay:10.37,2013-01-12 09:34:00,
2013-01-12 09:39:00,37.9,34.9,30.02,ESE,118,0.0,0.0,89,0.00,FEW,OVC,0.00,0.0,WeatherDisplay:10.37,2013-01-12 09:39:00,
2013-01-12 09:44:00,37.9,34.9,30.02,SSE,152,2.3,2.3,89,0.00,FEW,OVC,0.00,0.0,WeatherDisplay:10.37,2013-01-12 09:44:00,
2013-01-12 09:49:00,37.9,34.9,30.02,ESE,106,0.0,0.0,89,0.00,FEW,OVC,0.00,0.0,WeatherDisplay:10.37,2013-01-12 09:49:00,
2013-01-12 09:54:00,38.0,35.0,30.02,West,271,1.0,0.0,89,0.00,FEW,OVC,0.00,0.0,WeatherDisplay:10.37,2013-01-12 09:54:00,
2013-01-12 09:59:00,38.1,35.1,30.02,SE,134,0.0,0.0,89,0.00,FEW,OVC,0.00,0.0,WeatherDisplay:10.37,2013-01-12 09:59:00,
2013-01-12 10:04:00,38.5,35.8,30.02,SE,130,1.2,1.2,90,0.00,FEW,OVC,0.00,0.0,WeatherDisplay:10.37,2013-01-12 10:04:00,
2013-01-12 10:09:00,39.1,36.1,30.02,SW,221,1.2,0.0,89,0.00,FEW,OVC,0.00,0.0,WeatherDisplay:10.37,2013-01-12 10:09:00,
2013-01-12 10:14:00,39.7,36.4,30.02,SE,133,1.2,0.0,88,0.00,FEW,OVC,0.00,0.0,WeatherDisplay:10.37,2013-01-12 10:14:00,
2013-01-12 10:19:00,40.0,36.4,30.02,NW,315,1.2,1.2,87,0.00,FEW,OVC,0.00,0.0,WeatherDisplay:10.37,2013-01-12 10:19:00,
2013-01-12 10:24:00,39.8,36.0,30.02,WSW,241,1.2,0.0,86,0.00,FEW,OVC,0.00,0.0,WeatherDisplay:10.37,2013-01-12 10:24:00,
2013-01-12 10:29:00,39.4,35.6,30.03,WSW,250,0.0,0.0,86,0.00,FEW,OVC,0.00,0.0,WeatherDisplay:10.37,2013-01-12 10:29:00,
2013-01-12 10:34:00,39.1,35.3,30.02,WNW,302,2.3,0.0,86,0.00,FEW,OVC,0.00,0.0,WeatherDisplay:10.37,2013-01-12 10:34:00,
2013-01-12 10:39:00,38.7,35.2,30.03,NW,311,0.0,0.0,87,0.00,FEW,OVC,0.00,0.0,WeatherDisplay:10.37,2013-01-12 10:39:00,
2013-01-12 10:44:00,38.5,35.0,30.03,SSE,156,1.2,0.0,87,0.00,FEW,OVC,0.00,0.0,WeatherDisplay:10.37,2013-01-12 10:44:00,
2013-01-12 10:49:00,38.3,34.8,30.03,ESE,115,1.2,0.0,87,0.00,FEW,OVC,0.00,0.0,WeatherDisplay:10.37,2013-01-12 10:49:00,
2013-01-12 10:54:00,38.0,34.8,30.03,West,259,1.2,0.0,88,0.00,FEW,OVC,0.00,0.0,WeatherDisplay:10.37,2013-01-12 10:54:00,
2013-01-12 10:59:00,38.2,35.0,30.03,ESE,105,3.5,3.5,88,0.00,FEW,OVC,0.00,0.0,WeatherDisplay:10.37,2013-01-12 10:59:00,
2013-01-12 11:04:00,38.7,35.5,30.03,SE,138,1.2,1.2,88,0.00,FEW,OVC,0.00,0.0,WeatherDisplay:10.37,2013-01-12 11:04:00,
2013-01-12 11:09:00,39.1,35.6,30.03,ESE,122,2.3,2.3,87,0.00,FEW,OVC,0.00,0.0,WeatherDisplay:10.37,2013-01-12 11:09:00,
2013-01-12 11:14:00,39.2,35.7,30.03,SE,124,0.0,0.0,87,0.00,FEW,OVC,0.00,0.0,WeatherDisplay:10.37,2013-01-12 11:14:00,
2013-01-12 11:19:00,39.2,35.7,30.03,SSE,157,1.2,0.0,87,0.00,FEW,OVC,0.00,0.0,WeatherDisplay:10.37,2013-01-12 11:19:00,
2013-01-12 11:24:00,39.2,35.7,30.03,SE,128,1.2,1.2,87,0.00,FEW,OVC,0.00,0.0,WeatherDisplay:10.37,2013-01-12 11:24:00,
2013-01-12 11:29:00,39.1,35.6,30.03,ESE,122,0.0,0.0,87,0.00,FEW,OVC,0.00,0.0,WeatherDisplay:10.37,2013-01-12 11:29:00,
2013-01-12 11:34:00,39.2,35.9,30.03,NW,325,1.2,1.2,88,0.00,FEW,OVC,0.00,0.0,WeatherDisplay:10.37,2013-01-12 11:34:00,
2013-01-12 11:39:00,39.3,36.0,30.03,South,183,1.2,0.0,88,0.00,FEW,OVC,0.00,0.0,WeatherDisplay:10.37,2013-01-12 11:39:00,
2013-01-12 11:45:00,39.3,36.0,30.03,West,281,1.2,1.2,88,0.00,FEW,OVC,0.00,0.0,WeatherDisplay:10.37,2013-01-12 11:45:00,
2013-01-12 11:50:00,39.4,36.1,30.03,ESE,113,0.0,0.0,88,0.00,FEW,OVC,0.00,0.0,WeatherDisplay:10.37,2013-01-12 11:50:00,
2013-01-12 11:55:00,39.4,35.9,30.03,West,274,0.0,0.3,87,0.00,FEW,OVC,0.00,0.0,WeatherDisplay:10.37,2013-01-12 11:55:00,
2013-01-12 12:00:00,39.3,35.8,30.03,SSE,158,1.2,1.2,87,0.00,FEW,OVC,0.00,0.0,WeatherDisplay:10.37,2013-01-12 12:00:00,
2013-01-12 12:05:00,39.3,35.8,30.03,NW,307,1.2,1.2,87,0.00,FEW,OVC,0.00,0.0,WeatherDisplay:10.37,2013-01-12 12:05:00,
2013-01-12 12:10:00,39.2,35.7,30.03,WSW,242,0.0,0.1,87,0.00,FEW,OVC,0.00,0.0,WeatherDisplay:10.37,2013-01-12 12:10:00,
2013-01-12 12:15:00,39.1,35.6,30.03,SW,233,1.2,1.2,87,0.00,FEW,OVC,0.00,0.0,WeatherDisplay:10.37,2013-01-12 12:15:00,
2013-01-12 12:20:00,39.0,35.5,30.03,WNW,286,0.0,1.0,87,0.00,FEW,OVC,0.00,0.0,WeatherDisplay:10.37,2013-01-12 12:20:00,
2013-01-12 12:25:00,38.9,35.4,30.03,West,273,1.2,1.2,87,0.00,FEW,OVC,0.00,0.0,WeatherDisplay:10.37,2013-01-12 12:25:00,
2013-01-12 12:30:00,38.9,35.4,30.03,WSW,250,0.0,2.0,87,0.00,FEW,OVC,0.00,0.0,WeatherDisplay:10.37,2013-01-12 12:30:00,
2013-01-12 12:35:00,39.0,35.5,30.03,SSW,206,0.0,2.0,87,0.00,FEW,OVC,0.00,0.0,WeatherDisplay:10.37,2013-01-12 12:35:00,
2013-01-12 12:40:00,39.1,35.6,30.03,West,261,1.2,0.0,87,0.00,FEW,OVC,0.00,0.0,WeatherDisplay:10.37,2013-01-12 12:40:00,
2013-01-12 12:45:00,39.1,35.6,30.03,SE,128,0.0,2.0,87,0.00,FEW,OVC,0.00,0.0,WeatherDisplay:10.37,2013-01-12 12:45:00,
2013-01-12 12:50:00,39.1,35.6,30.03,South,173,0.0,1.0,87,0.00,FEW,OVC,0.00,0.0,WeatherDisplay:10.37,2013-01-12 12:50:00,
2013-01-12 12:55:00,39.3,36.0,30.03,South,186,0.0,0.0,88,0.00,FEW,OVC,0.00,0.0,WeatherDisplay:10.37,2013-01-12 12:55:00,
2013-01-12 13:00:00,39.8,36.2,30.03,SSW,207,0.0,1.0,87,0.00,FEW,OVC,0.00,0.0,WeatherDisplay:10.37,2013-01-12 13:00:00,
2013-01-12 13:05:00,40.3,36.1,30.03,SE,127,1.2,1.2,85,0.00,SCT,OVC,0.00,0.0,WeatherDisplay:10.37,2013-01-12 13:05:00,
2013-01-12 13:10:00,40.8,36.6,30.03,SSE,166,0.0,2.0,85,0.00,SCT,OVC,0.00,0.0,WeatherDisplay:10.37,2013-01-12 13:10:00,
2013-01-12 13:15:00,41.2,36.4,30.03,SSW,200,1.0,3.0,83,0.00,SCT,OVC,0.00,0.0,WeatherDisplay:10.37,2013-01-12 13:15:00,
2013-01-12 13:20:00,41.0,36.2,30.04,WNW,282,1.2,1.2,83,0.00,SCT,OVC,0.00,0.0,WeatherDisplay:10.37,2013-01-12 13:20:00,
2013-01-12 13:25:00,40.8,36.0,30.04,West,272,0.0,2.0,83,0.00,SCT,OVC,0.00,0.0,WeatherDisplay:10.37,2013-01-12 13:25:00,
2013-01-12 13:30:00,40.7,35.9,30.04,ESE,114,0.0,2.0,83,0.00,SCT,OVC,0.00,0.0,WeatherDisplay:10.37,2013-01-12 13:30:00,
2013-01-12 13:35:00,40.7,35.9,30.04,WNW,285,1.2,1.2,83,0.00,BKN,OVC,0.00,0.0,WeatherDisplay:10.37,2013-01-12 13:35:00,
2013-01-12 13:40:00,40.6,35.5,30.04,SSE,149,0.0,2.0,82,0.00,BKN,OVC,0.00,0.0,WeatherDisplay:10.37,2013-01-12 13:40:00,
2013-01-12 13:45:00,40.5,35.7,30.04,North,5,1.2,1.2,83,0.00,BKN,OVC,0.00,0.0,WeatherDisplay:10.37,2013-01-12 13:45:00,
2013-01-12 13:50:00,40.4,35.3,30.04,SSE,150,1.2,1.2,82,0.00,BKN,OVC,0.00,0.0,WeatherDisplay:10.37,2013-01-12 13:50:00,
2013-01-12 13:55:00,40.4,35.6,30.04,WNW,282,0.0,1.0,83,0.00,BKN,OVC,0.00,0.0,WeatherDisplay:10.37,2013-01-12 13:55:00,
2013-01-12 14:00:00,40.4,35.3,30.05,ESE,121,1.2,1.2,82,0.00,BKN,OVC,0.00,0.0,WeatherDisplay:10.37,2013-01-12 14:00:00,
2013-01-12 14:05:00,40.4,35.3,30.05,SE,136,2.3,0.0,82,0.00,BKN,OVC,0.00,0.0,WeatherDisplay:10.37,2013-01-12 14:05:00,
2013-01-12 14:10:00,40.3,34.9,30.05,SE,124,0.0,2.0,81,0.00,BKN,OVC,0.00,0.0,WeatherDisplay:10.37,2013-01-12 14:10:00,
2013-01-12 14:15:00,40.2,35.1,30.05,SE,139,1.2,1.2,82,0.00,BKN,OVC,0.00,0.0,WeatherDisplay:10.37,2013-01-12 14:15:00,
2013-01-12 14:20:00,40.1,35.0,30.05,West,276,1.2,1.2,82,0.00,BKN,OVC,0.00,0.0,WeatherDisplay:10.37,2013-01-12 14:20:00,
2013-01-12 14:25:00,40.0,34.9,30.05,SSE,164,0.0,3.0,82,0.00,BKN,OVC,0.00,0.0,WeatherDisplay:10.37,2013-01-12 14:25:00,
2013-01-12 14:30:00,39.9,34.9,30.06,West,263,1.2,1.2,82,0.00,BKN,OVC,0.00,0.0,WeatherDisplay:10.37,2013-01-12 14:30:00,
2013-01-12 14:35:00,39.8,34.8,30.06,SE,141,0.0,1.0,82,0.00,BKN,OVC,0.00,0.0,WeatherDisplay:10.37,2013-01-12 14:35:00,
2013-01-12 14:40:00,39.7,34.7,30.06,SE,137,1.2,1.2,82,0.00,BKN,OVC,0.00,0.0,WeatherDisplay:10.37,2013-01-12 14:40:00,
2013-01-12 14:45:00,39.7,35.0,30.06,SSE,150,1.2,0.0,83,0.00,BKN,OVC,0.00,0.0,WeatherDisplay:10.37,2013-01-12 14:45:00,
2013-01-12 14:50:00,39.6,34.9,30.06,NW,309,1.2,1.2,83,0.00,FEW,OVC,0.00,0.0,WeatherDisplay:10.37,2013-01-12 14:50:00,
2013-01-12 14:55:00,39.5,34.8,30.06,WSW,237,0.0,1.0,83,0.00,FEW,OVC,0.00,0.0,WeatherDisplay:10.37,2013-01-12 14:55:00,
2013-01-12 15:00:00,39.4,34.7,30.06,WSW,256,0.0,1.0,83,0.00,FEW,OVC,0.00,0.0,WeatherDisplay:10.37,2013-01-12 15:00:00,
2013-01-12 15:05:00,39.4,35.0,30.06,West,270,0.0,1.0,84,0.00,FEW,OVC,0.00,0.0,WeatherDisplay:10.37,2013-01-12 15:05:00,
2013-01-12 15:10:00,39.4,35.0,30.06,SW,228,1.2,0.0,84,0.00,FEW,OVC,0.00,0.0,WeatherDisplay:10.37,2013-01-12 15:10:00,
2013-01-12 15:15:00,39.3,34.9,30.06,SW,230,0.0,0.0,84,0.00,FEW,OVC,0.00,0.0,WeatherDisplay:10.37,2013-01-12 15:15:00,
2013-01-12 15:20:00,39.3,34.9,30.06,SW,233,1.0,0.0,84,0.00,FEW,OVC,0.00,0.0,WeatherDisplay:10.37,2013-01-12 15:20:00,
2013-01-12 15:25:00,39.2,34.8,30.06,West,281,0.0,0.0,84,0.00,FEW,OVC,0.00,0.0,WeatherDisplay:10.37,2013-01-12 15:25:00,
2013-01-12 15:30:00,39.2,35.1,30.06,West,281,0.0,1.0,85,0.00,FEW,OVC,0.00,0.0,WeatherDisplay:10.37,2013-01-12 15:30:00,
2013-01-12 15:35:00,39.1,35.0,30.07,NW,321,1.2,0.0,85,0.00,FEW,OVC,0.00,0.0,WeatherDisplay:10.37,2013-01-12 15:35:00,
2013-01-12 15:40:00,39.1,34.7,30.07,SSW,195,0.0,2.0,84,0.00,FEW,OVC,0.00,0.0,WeatherDisplay:10.37,2013-01-12 15:40:00,
2013-01-12 15:45:00,39.1,35.0,30.07,NNE,19,0.0,0.0,85,0.00,FEW,OVC,0.00,0.0,WeatherDisplay:10.37,2013-01-12 15:45:00,
2013-01-12 15:50:00,39.1,35.0,30.07,ENE,70,2.3,0.0,85,0.00,SCT,OVC,0.00,0.0,WeatherDisplay:10.37,2013-01-12 15:50:00,
2013-01-12 15:55:00,39.1,34.9,30.07,ESE,118,0.0,2.0,85,0.00,SCT,OVC,0.00,0.0,WeatherDisplay:10.37,2013-01-12 15:55:00,
2013-01-12 16:00:00,39.0,34.9,30.07,WNW,300,1.2,0.0,85,0.00,SCT,OVC,0.00,0.0,WeatherDisplay:10.37,2013-01-12 16:00:00,
2013-01-12 16:05:00,38.9,34.8,30.07,SSE,168,1.2,0.0,85,0.00,SCT,OVC,0.00,0.0,WeatherDisplay:10.37,2013-01-12 16:05:00,
2013-01-12 16:10:00,38.8,35.0,30.07,SSW,193,0.0,0.0,86,0.00,SCT,OVC,0.00,0.0,WeatherDisplay:10.37,2013-01-12 16:10:00,
2013-01-12 16:15:00,38.6,34.8,30.07,WSW,253,0.0,0.1,86,0.00,SCT,OVC,0.00,0.0,WeatherDisplay:10.37,2013-01-12 16:15:00,
2013-01-12 16:20:00,38.6,34.8,30.07,West,270,0.0,0.1,86,0.00,SCT,OVC,0.00,0.0,WeatherDisplay:10.37,2013-01-12 16:20:00,
2013-01-12 16:25:00,38.5,34.7,30.08,WSW,242,1.2,0.0,86,0.00,SCT,OVC,0.00,0.0,WeatherDisplay:10.37,2013-01-12 16:25:00,
2013-01-12 16:30:00,38.5,35.0,30.08,SW,219,1.2,1.2,87,0.00,SCT,OVC,0.00,0.0,WeatherDisplay:10.37,2013-01-12 16:30:00,
2013-01-12 16:35:00,38.4,34.9,30.08,SW,218,0.0,0.0,87,0.00,SCT,OVC,0.00,0.0,WeatherDisplay:10.37,2013-01-12 16:35:00,
2013-01-12 16:40:00,38.4,34.9,30.07,SSW,208,0.0,0.0,87,0.00,SCT,OVC,0.00,0.0,WeatherDisplay:10.37,2013-01-12 16:40:00,
2013-01-12 16:45:00,38.4,34.9,30.08,SSW,200,0.0,0.0,87,0.00,SCT,OVC,0.00,0.0,WeatherDisplay:10.37,2013-01-12 16:45:00,
2013-01-12 16:50:00,38.3,34.8,30.07,SSW,205,0.0,0.0,87,0.00,FEW,OVC,0.00,0.0,WeatherDisplay:10.37,2013-01-12 16:50:00,
2013-01-12 16:55:00,38.3,34.8,30.08,West,269,0.0,0.0,87,0.00,FEW,OVC,0.00,0.0,WeatherDisplay:10.37,2013-01-12 16:55:00,
2013-01-12 17:00:00,38.4,34.9,30.08,ESE,115,1.2,0.0,87,0.00,FEW,OVC,0.00,0.0,WeatherDisplay:10.37,2013-01-12 17:00:00,
2013-01-12 17:05:00,38.4,34.9,30.08,NW,305,0.0,0.0,87,0.00,FEW,OVC,0.00,0.0,WeatherDisplay:10.37,2013-01-12 17:05:00,
2013-01-12 17:10:00,38.4,34.9,30.08,NW,308,0.0,0.0,87,0.00,FEW,OVC,0.00,0.0,WeatherDisplay:10.37,2013-01-12 17:10:00,
2013-01-12 17:15:00,38.3,35.1,30.08,SE,129,1.2,1.2,88,0.00,FEW,OVC,0.00,0.0,WeatherDisplay:10.37,2013-01-12 17:15:00,
2013-01-12 17:20:00,38.3,35.1,30.08,WSW,237,1.2,1.2,88,0.00,FEW,OVC,0.00,0.0,WeatherDisplay:10.37,2013-01-12 17:20:00,
2013-01-12 17:25:00,38.3,35.1,30.08,SW,236,0.0,0.0,88,0.00,FEW,OVC,0.00,0.0,WeatherDisplay:10.37,2013-01-12 17:25:00,
2013-01-12 17:30:00,38.4,35.2,30.08,South,177,0.0,0.0,88,0.00,FEW,OVC,0.00,0.0,WeatherDisplay:10.37,2013-01-12 17:30:00,
2013-01-12 17:35:00,38.3,35.1,30.09,ESE,115,0.0,0.0,88,0.00,CLR,OVC,0.00,0.0,WeatherDisplay:10.37,2013-01-12 17:35:00,
2013-01-12 17:40:00,38.3,35.1,30.08,ESE,103,0.0,0.0,88,0.00,CLR,OVC,0.00,0.0,WeatherDisplay:10.37,2013-01-12 17:40:00,
2013-01-12 17:45:00,38.3,35.1,30.09,SE,133,1.2,1.2,88,0.00,CLR,OVC,0.00,0.0,WeatherDisplay:10.37,2013-01-12 17:45:00,
2013-01-12 17:50:00,38.3,35.1,30.09,SE,146,0.0,0.0,88,0.00,CLR,OVC,0.00,0.0,WeatherDisplay:10.37,2013-01-12 17:50:00,
2013-01-12 17:55:00,38.3,34.8,30.09,SE,145,0.0,0.0,87,0.00,CLR,OVC,0.00,0.0,WeatherDisplay:10.37,2013-01-12 17:55:00,
2013-01-12 18:00:00,38.3,34.8,30.09,SE,146,0.0,0.0,87,0.00,CLR,OVC,0.00,0.0,WeatherDisplay:10.37,2013-01-12 18:00:00,
2013-01-12 18:05:00,38.3,34.8,30.09,SE,145,0.0,0.0,87,0.00,CLR,OVC,0.00,0.0,WeatherDisplay:10.37,2013-01-12 18:05:00,
2013-01-12 18:10:00,38.3,34.8,30.09,SE,145,0.0,0.0,87,0.00,CLR,OVC,0.00,0.0,WeatherDisplay:10.37,2013-01-12 18:10:00,
2013-01-12 18:15:00,38.3,34.8,30.09,SE,146,0.0,0.0,87,0.00,CLR,OVC,0.00,0.0,WeatherDisplay:10.37,2013-01-12 18:15:00,
2013-01-12 18:20:00,38.3,34.8,30.09,SE,146,0.0,0.0,87,0.00,CLR,OVC,0.00,0.0,WeatherDisplay:10.37,2013-01-12 18:20:00,
2013-01-12 18:25:00,38.3,34.8,30.09,SSW,198,0.0,0.0,87,0.00,CLR,OVC,0.00,0.0,WeatherDisplay:10.37,2013-01-12 18:25:00,
2013-01-12 18:30:00,38.3,34.8,30.09,SSE,148,0.0,0.0,87,0.00,CLR,OVC,0.00,0.0,WeatherDisplay:10.37,2013-01-12 18:30:00,
2013-01-12 18:35:00,38.3,34.8,30.09,SSE,150,0.0,0.0,87,0.00,CLR,OVC,0.00,0.0,WeatherDisplay:10.37,2013-01-12 18:35:00,
2013-01-12 18:40:00,38.2,34.7,30.09,SSE,151,0.0,0.0,87,0.00,CLR,OVC,0.00,0.0,WeatherDisplay:10.37,2013-01-12 18:40:00,
2013-01-12 18:45:00,38.2,34.7,30.09,ESE,122,1.2,1.2,87,0.00,CLR,OVC,0.00,0.0,WeatherDisplay:10.37,2013-01-12 18:45:00,
2013-01-12 18:50:00,38.2,34.4,30.09,South,170,0.0,0.0,86,0.00,CLR,OVC,0.00,0.0,WeatherDisplay:10.37,2013-01-12 18:50:00,
2013-01-12 18:55:00,38.2,34.4,30.09,ESE,115,0.0,0.0,86,0.00,CLR,OVC,0.00,0.0,WeatherDisplay:10.37,2013-01-12 18:55:00,
2013-01-12 19:00:00,38.2,34.4,30.09,WSW,246,0.0,0.0,86,0.00,CLR,OVC,0.00,0.0,WeatherDisplay:10.37,2013-01-12 19:00:00,
2013-01-12 19:05:00,38.1,34.3,30.09,SE,136,0.0,0.0,86,0.00,CLR,OVC,0.00,0.0,WeatherDisplay:10.37,2013-01-12 19:05:00,
2013-01-12 19:10:00,38.1,34.3,30.10,SE,134,0.0,0.1,86,0.00,CLR,OVC,0.00,0.0,WeatherDisplay:10.37,2013-01-12 19:10:00,
2013-01-12 19:15:00,38.1,34.3,30.10,SE,139,0.0,0.0,86,0.00,CLR,OVC,0.00,0.0,WeatherDisplay:10.37,2013-01-12 19:15:00,
2013-01-12 19:20:00,38.1,34.3,30.10,SE,136,0.0,0.0,86,0.00,CLR,OVC,0.00,0.0,WeatherDisplay:10.37,2013-01-12 19:20:00,
2013-01-12 19:25:00,38.0,34.2,30.10,NW,314,0.0,0.0,86,0.00,CLR,OVC,0.00,0.0,WeatherDisplay:10.37,2013-01-12 19:25:00,
2013-01-12 19:30:00,38.0,34.2,30.10,WNW,297,1.2,1.2,86,0.00,CLR,OVC,0.00,0.0,WeatherDisplay:10.37,2013-01-12 19:30:00,
2013-01-12 19:35:00,38.0,33.9,30.10,WNW,296,0.0,0.0,85,0.00,CLR,OVC,0.00,0.0,WeatherDisplay:10.37,2013-01-12 19:35:00,
2013-01-12 19:40:00,38.0,34.2,30.10,WNW,297,0.0,0.0,86,0.00,CLR,OVC,0.00,0.0,WeatherDisplay:10.37,2013-01-12 19:40:00,
2013-01-12 19:45:00,37.9,34.1,30.10,WNW,297,0.0,0.0,86,0.00,CLR,OVC,0.00,0.0,WeatherDisplay:10.37,2013-01-12 19:45:00,
2013-01-12 19:50:00,37.9,34.1,30.10,WNW,296,0.0,0.0,86,0.00,CLR,OVC,0.00,0.0,WeatherDisplay:10.37,2013-01-12 19:50:00,
2013-01-12 19:55:00,37.8,34.0,30.10,SE,141,1.2,0.0,86,0.00,CLR,OVC,0.00,0.0,WeatherDisplay:10.37,2013-01-12 19:55:00,
2013-01-12 20:00:00,37.8,34.0,30.10,SE,125,1.2,1.2,86,0.00,CLR,OVC,0.00,0.0,WeatherDisplay:10.37,2013-01-12 20:00:00,
2013-01-12 20:05:00,37.7,33.9,30.10,SE,127,1.2,0.0,86,0.00,FEW,OVC,0.00,0.0,WeatherDisplay:10.37,2013-01-12 20:05:00,
2013-01-12 20:10:00,37.7,33.6,30.10,SE,127,0.0,0.0,85,0.00,FEW,OVC,0.00,0.0,WeatherDisplay:10.37,2013-01-12 20:10:00,
2013-01-12 20:15:00,37.6,33.8,30.10,SE,129,0.0,0.0,86,0.00,FEW,OVC,0.00,0.0,WeatherDisplay:10.37,2013-01-12 20:15:00,
2013-01-12 20:20:00,37.5,33.7,30.11,SE,129,0.0,0.0,86,0.00,FEW,OVC,0.00,0.0,WeatherDisplay:10.37,2013-01-12 20:20:00,
2013-01-12 20:26:00,37.3,33.5,30.11,SE,129,0.0,0.0,86,0.00,FEW,OVC,0.00,0.0,WeatherDisplay:10.37,2013-01-12 20:26:00,
2013-01-12 20:31:00,37.3,33.5,30.11,SE,129,0.0,0.0,86,0.00,CLR,OVC,0.00,0.0,WeatherDisplay:10.37,2013-01-12 20:31:00,
2013-01-12 20:36:00,37.2,33.4,30.11,SE,128,0.0,0.0,86,0.00,CLR,OVC,0.00,0.0,WeatherDisplay:10.37,2013-01-12 20:36:00,
2013-01-12 20:41:00,37.1,33.3,30.11,SE,129,1.2,0.0,86,0.00,CLR,OVC,0.00,0.0,WeatherDisplay:10.37,2013-01-12 20:41:00,
2013-01-12 20:46:00,37.0,33.5,30.11,ESE,117,1.2,0.0,87,0.00,CLR,OVC,0.00,0.0,WeatherDisplay:10.37,2013-01-12 20:46:00,
2013-01-12 20:51:00,36.9,33.4,30.11,ESE,117,0.0,0.0,87,0.00,CLR,OVC,0.00,0.0,WeatherDisplay:10.37,2013-01-12 20:51:00,
2013-01-12 20:56:00,36.7,33.2,30.12,ESE,117,0.0,0.0,87,0.00,CLR,OVC,0.00,0.0,WeatherDisplay:10.37,2013-01-12 20:56:00,
2013-01-12 21:02:00,36.6,33.1,30.12,ESE,117,0.0,0.0,87,0.00,CLR,OVC,0.00,0.0,WeatherDisplay:10.37,2013-01-12 21:02:00,
2013-01-12 21:07:00,36.5,33.0,30.12,WSW,252,0.0,0.0,87,0.00,CLR,OVC,0.00,0.0,WeatherDisplay:10.37,2013-01-12 21:07:00,
2013-01-12 21:12:00,36.4,33.2,30.12,WSW,252,1.2,0.0,88,0.00,CLR,OVC,0.00,0.0,WeatherDisplay:10.37,2013-01-12 21:12:00,
2013-01-12 21:17:00,36.3,33.1,30.12,East,91,0.0,0.0,88,0.00,CLR,OVC,0.00,0.0,WeatherDisplay:10.37,2013-01-12 21:17:00,
2013-01-12 21:22:00,36.2,33.0,30.12,ESE,116,0.0,0.0,88,0.00,CLR,OVC,0.00,0.0,WeatherDisplay:10.37,2013-01-12 21:22:00,
2013-01-12 21:27:00,36.0,32.8,30.12,ESE,114,0.0,0.0,88,0.00,CLR,OVC,0.00,0.0,WeatherDisplay:10.37,2013-01-12 21:27:00,
2013-01-12 21:32:00,35.9,32.7,30.12,ESE,115,0.0,0.0,88,0.00,CLR,OVC,0.00,0.0,WeatherDisplay:10.37,2013-01-12 21:32:00,
2013-01-12 21:37:00,35.8,32.6,30.12,ESE,115,0.0,0.0,88,0.00,CLR,OVC,0.00,0.0,WeatherDisplay:10.37,2013-01-12 21:37:00,
2013-01-12 21:42:00,35.7,32.5,30.12,ESE,115,0.0,0.0,88,0.00,CLR,OVC,0.00,0.0,WeatherDisplay:10.37,2013-01-12 21:42:00,
2013-01-12 21:47:00,35.5,32.6,30.12,ESE,119,0.0,0.0,89,0.00,CLR,OVC,0.00,0.0,WeatherDisplay:10.37,2013-01-12 21:47:00,
2013-01-12 21:52:00,35.4,32.5,30.12,ESE,119,0.0,0.0,89,0.00,CLR,OVC,0.00,0.0,WeatherDisplay:10.37,2013-01-12 21:52:00,
2013-01-12 21:57:00,35.3,32.4,30.12,ESE,119,0.0,0.0,89,0.00,CLR,OVC,0.00,0.0,WeatherDisplay:10.37,2013-01-12 21:57:00,
2013-01-12 22:02:00,35.4,32.8,30.13,ESE,119,0.0,0.0,90,0.00,CLR,OVC,0.00,0.0,WeatherDisplay:10.37,2013-01-12 22:02:00,
2013-01-12 22:07:00,35.4,32.8,30.13,ESE,118,0.0,0.0,90,0.00,CLR,OVC,0.00,0.0,WeatherDisplay:10.37,2013-01-12 22:07:00,
2013-01-12 22:12:00,35.4,32.8,30.12,SE,131,1.2,1.2,90,0.00,CLR,OVC,0.00,0.0,WeatherDisplay:10.37,2013-01-12 22:12:00,
2013-01-12 22:17:00,35.5,32.9,30.12,SE,132,0.0,0.0,90,0.00,CLR,OVC,0.00,0.0,WeatherDisplay:10.37,2013-01-12 22:17:00,
2013-01-12 22:22:00,35.6,33.0,30.12,East,91,0.0,0.0,90,0.00,CLR,OVC,0.00,0.0,WeatherDisplay:10.37,2013-01-12 22:22:00,
2013-01-12 22:27:00,35.7,33.1,30.12,SE,126,1.2,0.0,90,0.00,CLR,OVC,0.00,0.0,WeatherDisplay:10.37,2013-01-12 22:27:00,
2013-01-12 22:32:00,35.7,32.8,30.12,SSE,167,0.0,0.0,89,0.00,CLR,OVC,0.00,0.0,WeatherDisplay:10.37,2013-01-12 22:32:00,
2013-01-12 22:37:00,35.7,32.8,30.12,WNW,295,1.2,1.2,89,0.00,CLR,OVC,0.00,0.0,WeatherDisplay:10.37,2013-01-12 22:37:00,
2013-01-12 22:42:00,35.6,32.7,30.12,North,359,0.0,0.0,89,0.00,CLR,OVC,0.00,0.0,WeatherDisplay:10.37,2013-01-12 22:42:00,
2013-01-12 22:47:00,35.6,32.7,30.12,NNW,332,0.0,0.0,89,0.00,CLR,OVC,0.00,0.0,WeatherDisplay:10.37,2013-01-12 22:47:00,
2013-01-12 22:52:00,35.5,32.6,30.12,North,350,0.0,0.0,89,0.00,CLR,OVC,0.00,0.0,WeatherDisplay:10.37,2013-01-12 22:52:00,
2013-01-12 22:57:00,35.5,32.9,30.12,SSW,211,1.2,1.2,90,0.00,CLR,OVC,0.00,0.0,WeatherDisplay:10.37,2013-01-12 22:57:00,
2013-01-12 23:02:00,35.4,32.5,30.12,WNW,301,1.2,0.0,89,0.00,CLR,OVC,0.00,0.0,WeatherDisplay:10.37,2013-01-12 23:02:00,
2013-01-12 23:07:00,35.3,32.7,30.12,SE,143,0.0,0.0,90,0.00,CLR,OVC,0.00,0.0,WeatherDisplay:10.37,2013-01-12 23:07:00,
2013-01-12 23:12:00,35.3,32.7,30.12,SSE,158,0.0,0.0,90,0.00,CLR,OVC,0.00,0.0,WeatherDisplay:10.37,2013-01-12 23:12:00,
2013-01-12 23:17:00,35.3,32.7,30.12,SSW,211,0.0,0.0,90,0.00,CLR,OVC,0.00,0.0,WeatherDisplay:10.37,2013-01-12 23:17:00,
2013-01-12 23:22:00,35.2,32.6,30.12,SW,226,1.2,1.2,90,0.00,CLR,OVC,0.00,0.0,WeatherDisplay:10.37,2013-01-12 23:22:00,
2013-01-12 23:27:00,35.1,32.5,30.12,SW,226,0.0,0.0,90,0.00,CLR,OVC,0.00,0.0,WeatherDisplay:10.37,2013-01-12 23:27:00,
2013-01-12 23:32:00,35.1,32.5,30.13,SW,226,0.0,0.0,90,0.00,FEW,OVC,0.00,0.0,WeatherDisplay:10.37,2013-01-12 23:32:00,
2013-01-12 23:37:00,35.1,32.2,30.13,SW,226,0.0,0.0,89,0.00,FEW,OVC,0.00,0.0,WeatherDisplay:10.37,2013-01-12 23:37:00,
2013-01-12 23:42:00,35.1,32.2,30.13,SE,133,0.0,0.0,89,0.00,FEW,OVC,0.00,0.0,WeatherDisplay:10.37,2013-01-12 23:42:00,
2013-01-12 23:47:00,35.0,32.1,30.13,SE,133,1.2,0.0,89,0.00,FEW,OVC,0.00,0.0,WeatherDisplay:10.37,2013-01-12 23:47:00,
2013-01-12 23:52:00,35.0,32.1,30.13,SE,132,0.0,0.0,89,0.00,FEW,OVC,0.00,0.0,WeatherDisplay:10.37,2013-01-12 23:52:00,
2013-01-12 23:57:00,35.0,32.4,30.13,SE,133,0.0,0.0,90,0.00,FEW,OVC,0.00,0.0,WeatherDisplay:10.37,2013-01-12 23:57:00,